createdAt,value
2023-03-28T00:00:09.059Z,3.30
2023-03-28T00:01:12.057Z,3.40
2023-03-28T00:02:13.667Z,3.80
2023-03-28T00:03:19.433Z,3.57
2023-03-28T00:04:22.953Z,3.00
2023-03-28T00:05:24.567Z,3.00
2023-03-28T00:06:26.453Z,3.17
2023-03-28T00:07:29.521Z,3.30
2023-03-28T00:08:31.243Z,3.07
2023-03-28T00:09:33.363Z,3.37
2023-03-28T00:10:34.997Z,3.23
2023-03-28T00:11:36.520Z,3.30
2023-03-28T00:12:38.101Z,3.63
2023-03-28T00:13:39.763Z,3.07
2023-03-28T00:14:42.610Z,2.97
2023-03-28T00:15:44.217Z,3.00
2023-03-28T00:16:45.884Z,2.70
2023-03-28T00:17:47.517Z,3.07
2023-03-28T00:18:51.053Z,2.90
2023-03-28T00:19:53.548Z,3.03
2023-03-28T00:20:55.265Z,2.50
2023-03-28T00:21:57.534Z,2.50
2023-03-28T00:22:59.135Z,2.40
2023-03-28T00:24:04.256Z,2.30
2023-03-28T00:25:07.615Z,2.20
2023-03-28T00:26:09.464Z,1.80
2023-03-28T00:27:11.018Z,2.30
2023-03-28T00:28:12.634Z,2.30
2023-03-28T00:29:20.843Z,2.00
2023-03-28T00:30:22.861Z,1.73
2023-03-28T00:31:26.508Z,1.87
2023-03-28T00:32:28.297Z,1.90
2023-03-28T00:33:29.902Z,1.70
2023-03-28T00:34:31.414Z,1.73
2023-03-28T00:35:34.959Z,1.50
2023-03-28T00:36:39.139Z,1.70
2023-03-28T00:37:41.852Z,1.80
2023-03-28T00:38:43.364Z,1.90
2023-03-28T00:39:54.298Z,1.50
2023-03-28T00:40:57.948Z,1.80
2023-03-28T00:42:01.736Z,1.37
2023-03-28T00:43:03.452Z,1.30
2023-03-28T00:44:43.563Z,1.47
2023-03-28T00:45:48.849Z,1.30
2023-03-28T00:46:58.072Z,1.10
2023-03-28T00:48:15.342Z,1.00
2023-03-28T00:49:24.933Z,1.20
2023-03-28T00:50:39.448Z,0.90
2023-03-28T00:52:07.626Z,1.07
2023-03-28T00:53:20.993Z,1.00
2023-03-28T00:54:28.050Z,1.10
2023-03-28T00:55:35.789Z,1.00
2023-03-28T00:56:38.683Z,1.10
2023-03-28T00:57:41.955Z,0.93
2023-03-28T00:58:47.283Z,0.97
2023-03-28T00:59:48.832Z,1.13
2023-03-28T01:00:54.928Z,0.97
2023-03-28T01:01:56.671Z,1.00
2023-03-28T01:02:59.041Z,1.07
2023-03-28T01:04:03.074Z,1.00
2023-03-28T01:05:04.883Z,1.40
2023-03-28T01:06:08.357Z,1.27
2023-03-28T01:07:09.945Z,1.03
2023-03-28T01:08:21.715Z,1.13
2023-03-28T01:09:26.934Z,1.00
2023-03-28T01:10:29.613Z,1.20
2023-03-28T01:11:32.978Z,1.37
2023-03-28T01:12:35.354Z,1.53
2023-03-28T01:13:42.058Z,1.13
2023-03-28T01:14:45.336Z,1.37
2023-03-28T01:15:50.228Z,1.40
2023-03-28T01:16:52.688Z,1.30
2023-03-28T01:17:54.580Z,1.20
2023-03-28T01:19:02.021Z,1.30
2023-03-28T01:20:06.574Z,1.30
2023-03-28T01:21:11.819Z,1.40
2023-03-28T01:22:16.104Z,1.20
2023-03-28T01:23:36.524Z,1.20
2023-03-28T01:25:12.140Z,1.07
2023-03-28T01:26:42.265Z,1.30
2023-03-28T01:28:09.785Z,1.30
2023-03-28T01:29:32.398Z,1.03
2023-03-28T01:30:48.910Z,1.33
2023-03-28T01:32:18.034Z,1.20
2023-03-28T01:33:34.026Z,1.20
2023-03-28T01:35:06.615Z,1.20
2023-03-28T01:36:45.792Z,1.10
2023-03-28T01:38:10.373Z,1.17
2023-03-28T01:39:39.015Z,1.03
2023-03-28T01:41:08.501Z,0.97
2023-03-28T01:42:33.630Z,1.20
2023-03-28T01:43:42.587Z,0.90
2023-03-28T01:44:53.121Z,0.90
2023-03-28T01:46:23.294Z,0.87
2023-03-28T01:47:39.106Z,0.83
2023-03-28T01:48:59.452Z,1.20
2023-03-28T01:50:13.085Z,0.80
2023-03-28T01:51:42.957Z,1.20
2023-03-28T01:53:22.601Z,0.80
2023-03-28T01:54:30.242Z,0.90
2023-03-28T01:56:01.849Z,0.87
2023-03-28T01:57:10.442Z,0.90
2023-03-28T01:58:40.237Z,0.90
2023-03-28T01:59:51.121Z,0.97
2023-03-28T02:00:59.172Z,0.93
2023-03-28T02:02:24.472Z,1.00
2023-03-28T02:03:36.599Z,0.93
2023-03-28T02:04:42.064Z,1.00
2023-03-28T02:05:46.112Z,0.90
2023-03-28T02:06:51.534Z,0.83
2023-03-28T02:07:54.700Z,1.00
2023-03-28T02:08:57.613Z,1.00
2023-03-28T02:10:01.475Z,1.10
2023-03-28T02:11:03.791Z,0.80
2023-03-28T02:12:15.702Z,0.90
2023-03-28T02:13:29.302Z,1.23
2023-03-28T02:14:37.403Z,1.00
2023-03-28T02:15:40.771Z,1.20
2023-03-28T02:16:50.005Z,1.17
2023-03-28T02:17:58.239Z,1.17
2023-03-28T02:19:00.692Z,1.27
2023-03-28T02:20:11.694Z,1.20
2023-03-28T02:21:36.631Z,1.13
2023-03-28T02:22:40.988Z,1.43
2023-03-28T02:23:47.367Z,1.10
2023-03-28T02:24:51.869Z,1.20
2023-03-28T02:25:53.508Z,1.30
2023-03-28T02:26:56.260Z,1.30
2023-03-28T02:28:03.310Z,1.40
2023-03-28T02:29:06.262Z,1.50
2023-03-28T02:30:09.250Z,1.53
2023-03-28T02:31:13.779Z,1.50
2023-03-28T02:32:17.138Z,1.60
2023-03-28T02:33:44.061Z,1.20
2023-03-28T02:34:48.930Z,1.50
2023-03-28T02:36:10.655Z,1.30
2023-03-28T02:37:29.517Z,1.20
2023-03-28T02:38:44.346Z,1.30
2023-03-28T02:39:50.729Z,1.50
2023-03-28T02:41:10.874Z,1.63
2023-03-28T02:42:45.603Z,1.53
2023-03-28T02:43:52.966Z,1.50
2023-03-28T02:45:10.547Z,1.60
2023-03-28T02:46:24.049Z,1.70
2023-03-28T02:48:09.119Z,1.80
2023-03-28T02:49:20.595Z,1.60
2023-03-28T02:50:27.817Z,1.50
2023-03-28T02:51:41.711Z,1.60
2023-03-28T02:53:18.366Z,1.53
2023-03-28T02:54:37.858Z,1.70
2023-03-28T02:55:58.092Z,1.37
2023-03-28T02:57:37.754Z,1.50
2023-03-28T02:58:42.761Z,1.60
2023-03-28T02:59:50.397Z,1.53
2023-03-28T03:00:52.167Z,1.50
2023-03-28T03:01:54.116Z,1.60
2023-03-28T03:02:57.073Z,1.70
2023-03-28T03:03:59.117Z,1.27
2023-03-28T03:05:01.820Z,1.40
2023-03-28T03:06:05.005Z,1.37
2023-03-28T03:07:09.524Z,1.60
2023-03-28T03:08:11.908Z,1.53
2023-03-28T03:09:13.415Z,1.60
2023-03-28T03:10:17.000Z,1.80
2023-03-28T03:11:18.542Z,1.70
2023-03-28T03:12:21.304Z,1.60
2023-03-28T03:13:23.227Z,1.60
2023-03-28T03:14:25.647Z,1.20
2023-03-28T03:15:30.910Z,1.70
2023-03-28T03:16:32.533Z,1.30
2023-03-28T03:17:34.116Z,1.50
2023-03-28T03:18:37.025Z,1.50
2023-03-28T03:19:38.555Z,1.63
2023-03-28T03:20:41.243Z,1.90
2023-03-28T03:21:42.749Z,1.60
2023-03-28T03:22:44.523Z,1.57
2023-03-28T03:23:46.194Z,1.50
2023-03-28T03:24:48.350Z,1.50
2023-03-28T03:25:50.751Z,1.50
2023-03-28T03:26:52.346Z,1.47
2023-03-28T03:27:53.930Z,1.10
2023-03-28T03:28:57.430Z,1.60
2023-03-28T03:29:59.406Z,1.30
2023-03-28T03:31:01.213Z,1.30
2023-03-28T03:32:02.789Z,1.70
2023-03-28T03:33:05.600Z,1.40
2023-03-28T03:34:07.760Z,1.33
2023-03-28T03:35:09.731Z,1.40
2023-03-28T03:36:12.810Z,1.43
2023-03-28T03:37:17.778Z,1.37
2023-03-28T03:38:19.383Z,1.20
2023-03-28T03:39:22.101Z,1.47
2023-03-28T03:40:23.616Z,1.50
2023-03-28T03:41:25.608Z,1.53
2023-03-28T03:42:27.164Z,1.30
2023-03-28T03:43:28.869Z,1.40
2023-03-28T03:44:30.433Z,1.40
2023-03-28T03:45:32.425Z,1.60
2023-03-28T03:46:33.991Z,1.80
2023-03-28T03:47:35.686Z,1.60
2023-03-28T03:48:37.247Z,1.53
2023-03-28T03:49:38.914Z,1.60
2023-03-28T03:50:40.878Z,1.60
2023-03-28T03:51:42.454Z,1.60
2023-03-28T03:52:44.044Z,1.40
2023-03-28T03:53:46.725Z,1.60
2023-03-28T03:54:48.416Z,1.60
2023-03-28T03:55:50.013Z,1.50
2023-03-28T03:56:51.604Z,1.80
2023-03-28T03:57:53.270Z,1.50
2023-03-28T03:58:54.820Z,1.83
2023-03-28T03:59:57.358Z,1.70
2023-03-28T04:00:59.451Z,1.50
2023-03-28T04:02:01.469Z,1.50
2023-03-28T04:03:03.439Z,1.60
2023-03-28T04:04:07.282Z,1.50
2023-03-28T04:05:09.338Z,1.70
2023-03-28T04:06:10.923Z,1.50
2023-03-28T04:07:12.854Z,1.50
2023-03-28T04:08:14.366Z,1.50
2023-03-28T04:09:15.928Z,1.50
2023-03-28T04:10:17.499Z,1.37
2023-03-28T04:11:19.070Z,1.40
2023-03-28T04:12:20.682Z,1.50
2023-03-28T04:13:22.487Z,1.50
2023-03-28T04:14:24.158Z,1.30
2023-03-28T04:15:25.759Z,1.43
2023-03-28T04:16:28.306Z,1.20
2023-03-28T04:17:44.264Z,1.20
2023-03-28T04:18:50.927Z,1.23
2023-03-28T04:19:52.827Z,1.33
2023-03-28T04:20:58.129Z,1.30
2023-03-28T04:21:59.696Z,1.63
2023-03-28T04:23:01.406Z,1.50
2023-03-28T04:24:04.023Z,1.40
2023-03-28T04:25:06.628Z,1.30
2023-03-28T04:26:08.806Z,1.40
2023-03-28T04:27:13.652Z,1.43
2023-03-28T04:28:16.831Z,1.50
2023-03-28T04:29:18.325Z,1.10
2023-03-28T04:30:21.119Z,1.37
2023-03-28T04:31:29.480Z,1.60
2023-03-28T04:32:35.838Z,1.80
2023-03-28T04:33:37.705Z,2.13
2023-03-28T04:34:39.275Z,1.80
2023-03-28T04:35:40.903Z,1.80
2023-03-28T04:36:43.850Z,1.53
2023-03-28T04:37:45.450Z,1.60
2023-03-28T04:38:47.020Z,1.60
2023-03-28T04:39:48.720Z,1.30
2023-03-28T04:40:53.655Z,1.40
2023-03-28T04:41:57.375Z,1.60
2023-03-28T04:42:58.981Z,1.70
2023-03-28T04:44:00.959Z,2.03
2023-03-28T04:45:02.560Z,1.80
2023-03-28T04:46:04.323Z,1.70
2023-03-28T04:47:08.733Z,1.80
2023-03-28T04:48:10.480Z,1.67
2023-03-28T04:49:12.165Z,1.83
2023-03-28T04:50:13.708Z,1.77
2023-03-28T04:51:15.640Z,2.10
2023-03-28T04:52:17.247Z,1.70
2023-03-28T04:53:18.989Z,1.80
2023-03-28T04:54:20.807Z,1.83
2023-03-28T04:55:22.564Z,2.30
2023-03-28T04:56:24.128Z,1.73
2023-03-28T04:57:25.847Z,1.83
2023-03-28T04:58:27.412Z,1.60
2023-03-28T04:59:29.606Z,1.60
2023-03-28T05:00:31.196Z,1.57
2023-03-28T05:01:33.147Z,1.70
2023-03-28T05:02:34.819Z,1.83
2023-03-28T05:03:37.834Z,1.97
2023-03-28T05:04:40.548Z,1.60
2023-03-28T05:05:42.157Z,1.70
2023-03-28T05:06:47.873Z,1.50
2023-03-28T05:07:49.532Z,1.80
2023-03-28T05:08:51.057Z,2.10
2023-03-28T05:09:52.602Z,1.47
2023-03-28T05:10:55.348Z,1.40
2023-03-28T05:11:56.925Z,1.20
2023-03-28T05:12:58.997Z,1.07
2023-03-28T05:14:00.731Z,1.33
2023-03-28T05:15:02.471Z,1.30
2023-03-28T05:16:04.610Z,1.30
2023-03-28T05:17:06.308Z,1.00
2023-03-28T05:18:08.207Z,1.20
2023-03-28T05:19:10.616Z,1.27
2023-03-28T05:20:12.539Z,1.07
2023-03-28T05:21:14.033Z,1.27
2023-03-28T05:22:15.605Z,1.40
2023-03-28T05:23:17.392Z,1.30
2023-03-28T05:24:18.964Z,1.37
2023-03-28T05:25:20.554Z,1.30
2023-03-28T05:26:22.154Z,1.43
2023-03-28T05:27:24.224Z,1.50
2023-03-28T05:28:25.921Z,1.40
2023-03-28T05:29:27.504Z,1.23
2023-03-28T05:30:29.025Z,1.20
2023-03-28T05:31:30.944Z,1.40
2023-03-28T05:32:32.558Z,1.40
2023-03-28T05:33:36.616Z,1.30
2023-03-28T05:34:38.235Z,1.20
2023-03-28T05:35:40.488Z,1.50
2023-03-28T05:36:43.141Z,1.50
2023-03-28T05:37:46.736Z,1.20
2023-03-28T05:38:48.821Z,1.13
2023-03-28T05:39:50.530Z,1.23
2023-03-28T05:40:53.074Z,1.40
2023-03-28T05:41:54.644Z,1.30
2023-03-28T05:42:56.280Z,1.27
2023-03-28T05:43:57.834Z,1.27
2023-03-28T05:44:59.410Z,1.37
2023-03-28T05:46:01.069Z,1.50
2023-03-28T05:47:02.669Z,1.70
2023-03-28T05:48:04.593Z,1.60
2023-03-28T05:49:06.192Z,1.47
2023-03-28T05:50:08.881Z,1.60
2023-03-28T05:51:10.428Z,1.87
2023-03-28T05:52:11.968Z,1.70
2023-03-28T05:53:13.528Z,1.37
2023-03-28T05:54:15.465Z,1.50
2023-03-28T05:55:17.177Z,1.40
2023-03-28T05:56:18.722Z,1.30
2023-03-28T05:57:20.974Z,1.40
2023-03-28T05:58:22.568Z,1.80
2023-03-28T05:59:26.735Z,1.50
2023-03-28T06:00:28.262Z,1.53
2023-03-28T06:01:31.390Z,1.53
2023-03-28T06:02:33.564Z,1.60
2023-03-28T06:03:40.259Z,1.60
2023-03-28T06:04:42.690Z,1.80
2023-03-28T06:05:44.539Z,2.07
2023-03-28T06:06:48.693Z,1.70
2023-03-28T06:07:50.241Z,1.70
2023-03-28T06:08:51.856Z,1.87
2023-03-28T06:09:53.858Z,1.50
2023-03-28T06:11:00.451Z,1.60
2023-03-28T06:12:02.763Z,2.10
2023-03-28T06:13:04.346Z,2.43
2023-03-28T06:14:06.607Z,2.30
2023-03-28T06:15:09.510Z,2.00
2023-03-28T06:16:11.112Z,2.00
2023-03-28T06:17:12.702Z,2.10
2023-03-28T06:18:14.311Z,2.03
2023-03-28T06:19:18.356Z,1.80
2023-03-28T06:20:20.415Z,2.10
2023-03-28T06:21:21.986Z,2.30
2023-03-28T06:22:23.760Z,2.40
2023-03-28T06:23:25.544Z,2.07
2023-03-28T06:24:27.101Z,2.30
2023-03-28T06:25:28.677Z,1.90
2023-03-28T06:26:30.365Z,2.40
2023-03-28T06:27:32.954Z,2.47
2023-03-28T06:28:34.483Z,2.40
2023-03-28T06:29:36.457Z,2.50
2023-03-28T06:30:40.091Z,2.30
2023-03-28T06:31:41.709Z,2.27
2023-03-28T06:32:43.264Z,2.20
2023-03-28T06:33:44.874Z,2.30
2023-03-28T06:34:46.424Z,1.70
2023-03-28T06:35:48.018Z,2.20
2023-03-28T06:36:49.560Z,2.37
2023-03-28T06:37:51.113Z,2.17
2023-03-28T06:38:53.659Z,2.20
2023-03-28T06:39:55.394Z,2.30
2023-03-28T06:40:57.015Z,2.00
2023-03-28T06:41:59.779Z,2.20
2023-03-28T06:43:01.484Z,2.70
2023-03-28T06:44:03.060Z,2.30
2023-03-28T06:45:04.881Z,2.37
2023-03-28T06:46:07.090Z,2.20
2023-03-28T06:47:08.755Z,2.93
2023-03-28T06:48:10.821Z,2.17
2023-03-28T06:49:12.467Z,2.50
2023-03-28T06:50:13.995Z,2.50
2023-03-28T06:51:15.564Z,2.30
2023-03-28T06:52:17.405Z,2.67
2023-03-28T06:53:19.214Z,2.43
2023-03-28T06:54:20.799Z,2.70
2023-03-28T06:55:22.845Z,2.67
2023-03-28T06:56:24.455Z,2.77
2023-03-28T06:57:26.406Z,2.90
2023-03-28T06:58:28.053Z,2.90
2023-03-28T06:59:29.655Z,3.07
2023-03-28T07:00:31.343Z,2.77
2023-03-28T07:01:33.108Z,3.20
2023-03-28T07:02:34.852Z,2.83
2023-03-28T07:03:36.597Z,3.27
2023-03-28T07:04:38.286Z,2.70
2023-03-28T07:05:41.230Z,2.93
2023-03-28T07:06:42.967Z,3.30
2023-03-28T07:07:44.526Z,3.30
2023-03-28T07:08:46.148Z,2.80
2023-03-28T07:09:49.911Z,2.87
2023-03-28T07:10:51.484Z,3.17
2023-03-28T07:11:53.479Z,3.20
2023-03-28T07:12:54.971Z,3.03
2023-03-28T07:13:56.471Z,2.83
2023-03-28T07:14:58.054Z,2.97
2023-03-28T07:16:15.364Z,3.20
2023-03-28T07:17:16.993Z,3.23
2023-03-28T07:18:18.564Z,2.80
2023-03-28T07:19:20.176Z,2.90
2023-03-28T07:20:21.778Z,2.97
2023-03-28T07:21:23.371Z,3.10
2023-03-28T07:22:25.069Z,3.40
2023-03-28T07:23:26.593Z,3.10
2023-03-28T07:24:28.129Z,3.20
2023-03-28T07:25:29.700Z,2.97
2023-03-28T07:26:31.377Z,3.10
2023-03-28T07:27:32.923Z,2.97
2023-03-28T07:28:34.810Z,2.83
2023-03-28T07:29:37.544Z,2.67
2023-03-28T07:30:39.116Z,3.50
2023-03-28T07:31:41.209Z,2.93
2023-03-28T07:32:53.375Z,3.20
2023-03-28T07:33:59.506Z,3.50
2023-03-28T07:35:01.255Z,3.37
2023-03-28T07:36:15.103Z,3.50
2023-03-28T07:37:17.231Z,3.17
2023-03-28T07:38:19.149Z,3.20
2023-03-28T07:39:20.787Z,3.23
2023-03-28T07:40:22.301Z,3.63
2023-03-28T07:41:23.869Z,2.87
2023-03-28T07:42:26.943Z,2.90
2023-03-28T07:43:28.483Z,3.47
2023-03-28T07:44:30.085Z,2.67
2023-03-28T07:45:32.078Z,3.10
2023-03-28T07:46:37.446Z,3.40
2023-03-28T07:47:39.048Z,3.27
2023-03-28T07:48:41.284Z,3.30
2023-03-28T07:49:42.824Z,3.30
2023-03-28T07:50:44.728Z,3.13
2023-03-28T07:51:47.863Z,3.20
2023-03-28T07:52:50.717Z,2.93
2023-03-28T07:53:52.424Z,3.67
2023-03-28T07:54:54.108Z,2.90
2023-03-28T07:55:56.333Z,3.07
2023-03-28T07:56:58.111Z,3.40
2023-03-28T07:58:00.155Z,2.93
2023-03-28T07:59:02.083Z,3.40
2023-03-28T08:00:13.373Z,3.47
2023-03-28T08:01:15.590Z,3.00
2023-03-28T08:02:17.503Z,3.43
2023-03-28T08:03:19.335Z,3.10
2023-03-28T08:04:21.209Z,2.87
2023-03-28T08:05:24.234Z,3.17
2023-03-28T08:06:32.120Z,3.23
2023-03-28T08:07:34.761Z,2.90
2023-03-28T08:08:36.530Z,2.67
2023-03-28T08:09:38.261Z,2.47
2023-03-28T08:10:39.773Z,2.97
2023-03-28T08:11:42.859Z,2.90
2023-03-28T08:12:44.404Z,3.03
2023-03-28T08:13:45.968Z,2.77
2023-03-28T08:14:47.518Z,3.00
2023-03-28T08:15:52.997Z,2.97
2023-03-28T08:16:56.554Z,3.10
2023-03-28T08:17:58.230Z,3.40
2023-03-28T08:19:09.826Z,3.17
2023-03-28T08:20:12.728Z,2.77
2023-03-28T08:21:14.300Z,3.23
2023-03-28T08:22:17.311Z,2.47
2023-03-28T08:23:18.899Z,1.87
2023-03-28T08:24:32.941Z,1.90
2023-03-28T08:25:36.650Z,1.90
2023-03-28T08:26:38.509Z,2.10
2023-03-28T08:27:40.155Z,2.13
2023-03-28T08:28:41.902Z,2.50
2023-03-28T08:29:43.587Z,2.63
2023-03-28T08:30:45.167Z,2.50
2023-03-28T08:31:47.880Z,2.30
2023-03-28T08:32:50.954Z,1.97
2023-03-28T08:33:53.571Z,1.80
2023-03-28T08:34:55.638Z,2.00
2023-03-28T08:35:57.431Z,2.00
2023-03-28T08:36:59.907Z,2.03
2023-03-28T08:38:01.578Z,2.17
2023-03-28T08:39:04.944Z,1.87
2023-03-28T08:40:10.338Z,1.90
2023-03-28T08:41:28.799Z,2.17
2023-03-28T08:43:22.562Z,1.70
2023-03-28T08:44:29.956Z,1.57
2023-03-28T08:45:41.626Z,2.60
2023-03-28T08:46:45.561Z,2.10
2023-03-28T08:48:06.063Z,1.90
2023-03-28T08:49:12.902Z,2.10
2023-03-28T08:50:28.621Z,1.70
2023-03-28T08:51:35.568Z,1.70
2023-03-28T08:52:38.386Z,1.60
2023-03-28T08:53:44.693Z,1.50
2023-03-28T08:54:55.626Z,1.60
2023-03-28T08:55:58.862Z,2.13
2023-03-28T08:57:04.179Z,1.73
2023-03-28T08:58:10.321Z,1.63
2023-03-28T08:59:16.004Z,1.60
2023-03-28T09:00:33.316Z,1.60
2023-03-28T09:01:35.498Z,2.00
2023-03-28T09:02:37.473Z,1.90
2023-03-28T09:03:39.754Z,1.90
2023-03-28T09:04:41.472Z,1.77
2023-03-28T09:06:12.272Z,1.70
2023-03-28T09:07:22.475Z,1.67
2023-03-28T09:08:38.952Z,1.77
2023-03-28T09:09:43.580Z,1.90
2023-03-28T09:11:02.612Z,1.97
2023-03-28T09:12:16.340Z,1.90
2023-03-28T09:13:32.187Z,2.37
2023-03-28T09:14:54.397Z,2.00
2023-03-28T09:16:03.128Z,1.80
2023-03-28T09:17:25.914Z,2.00
2023-03-28T09:18:55.555Z,1.80
2023-03-28T09:20:16.413Z,1.60
2023-03-28T09:21:31.397Z,1.80
2023-03-28T09:23:15.268Z,1.50
2023-03-28T09:24:41.586Z,1.80
2023-03-28T09:25:57.200Z,1.90
2023-03-28T09:27:13.154Z,1.60
2023-03-28T09:28:38.950Z,1.67
2023-03-28T09:29:43.200Z,1.70
2023-03-28T09:30:48.834Z,2.03
2023-03-28T09:31:56.386Z,1.63
2023-03-28T09:33:03.253Z,1.50
2023-03-28T09:34:07.141Z,1.80
2023-03-28T09:35:17.083Z,1.43
2023-03-28T09:36:22.770Z,1.60
2023-03-28T09:37:40.893Z,1.50
2023-03-28T09:39:11.373Z,1.80
2023-03-28T09:40:21.598Z,1.50
2023-03-28T09:41:33.378Z,1.50
2023-03-28T09:42:54.001Z,1.67
2023-03-28T09:43:59.394Z,1.70
2023-03-28T09:45:32.395Z,1.43
2023-03-28T09:46:39.971Z,1.60
2023-03-28T09:47:46.672Z,1.60
2023-03-28T09:48:49.098Z,1.70
2023-03-28T09:49:59.224Z,1.70
2023-03-28T09:51:15.502Z,1.83
2023-03-28T09:52:21.857Z,1.70
2023-03-28T09:53:42.510Z,1.77
2023-03-28T09:54:44.077Z,2.20
2023-03-28T09:55:54.676Z,1.90
2023-03-28T09:57:05.120Z,1.90
2023-03-28T09:58:12.337Z,2.00
2023-03-28T09:59:28.653Z,1.73
2023-03-28T10:00:35.528Z,1.70
2023-03-28T10:01:44.138Z,1.63
2023-03-28T10:02:52.961Z,1.90
2023-03-28T10:03:56.011Z,1.90
2023-03-28T10:04:58.350Z,1.73
2023-03-28T10:06:21.005Z,1.83
2023-03-28T10:07:42.538Z,1.70
2023-03-28T10:08:44.539Z,2.00
2023-03-28T10:09:51.371Z,1.53
2023-03-28T10:11:02.686Z,1.80
2023-03-28T10:12:10.259Z,1.63
2023-03-28T10:13:11.955Z,1.90
2023-03-28T10:14:40.756Z,2.03
2023-03-28T10:15:46.026Z,1.80
2023-03-28T10:16:47.685Z,1.60
2023-03-28T10:17:50.909Z,2.30
2023-03-28T10:18:53.202Z,1.90
2023-03-28T10:20:05.552Z,1.90
2023-03-28T10:21:27.109Z,1.90
2023-03-28T10:22:33.837Z,2.20
2023-03-28T10:23:36.874Z,1.73
2023-03-28T10:24:39.854Z,2.20
2023-03-28T10:25:44.533Z,2.10
2023-03-28T10:26:46.121Z,2.00
2023-03-28T10:27:49.079Z,1.97
2023-03-28T10:28:54.657Z,2.20
2023-03-28T10:29:58.684Z,2.20
2023-03-28T10:31:03.129Z,2.47
2023-03-28T10:32:06.438Z,2.13
2023-03-28T10:33:08.996Z,2.07
2023-03-28T10:34:27.152Z,1.80
2023-03-28T10:35:31.128Z,1.77
2023-03-28T10:36:43.692Z,1.70
2023-03-28T10:37:48.328Z,2.03
2023-03-28T10:38:50.368Z,1.93
2023-03-28T10:40:00.757Z,2.13
2023-03-28T10:41:26.147Z,1.80
2023-03-28T10:42:28.267Z,1.50
2023-03-28T10:43:35.441Z,1.70
2023-03-28T10:44:37.079Z,1.77
2023-03-28T10:45:43.389Z,2.10
2023-03-28T10:46:46.327Z,1.90
2023-03-28T10:47:51.658Z,1.77
2023-03-28T10:48:57.687Z,2.10
2023-03-28T10:50:00.664Z,1.83
2023-03-28T10:51:10.593Z,1.60
2023-03-28T10:52:22.675Z,1.93
2023-03-28T10:53:39.740Z,2.20
2023-03-28T10:55:07.662Z,1.83
2023-03-28T10:56:21.124Z,1.90
2023-03-28T10:57:32.192Z,1.90
2023-03-28T10:58:52.115Z,2.17
2023-03-28T11:00:21.258Z,2.07
2023-03-28T11:01:59.646Z,2.13
2023-03-28T11:03:24.292Z,2.47
2023-03-28T11:04:59.523Z,2.30
2023-03-28T11:06:12.321Z,2.13
2023-03-28T11:07:41.445Z,2.10
2023-03-28T11:09:03.857Z,1.83
2023-03-28T11:10:37.327Z,2.10
2023-03-28T11:11:47.597Z,2.10
2023-03-28T11:13:16.716Z,2.10
2023-03-28T11:14:26.039Z,1.80
2023-03-28T11:15:34.099Z,2.20
2023-03-28T11:16:50.858Z,2.23
2023-03-28T11:18:17.065Z,2.50
2023-03-28T11:19:39.637Z,2.47
2023-03-28T11:21:01.163Z,2.40
2023-03-28T11:22:17.958Z,2.77
2023-03-28T11:23:55.420Z,2.33
2023-03-28T11:25:23.372Z,2.50
2023-03-28T11:26:40.151Z,2.30
2023-03-28T11:27:44.838Z,2.10
2023-03-28T11:28:55.279Z,2.83
2023-03-28T11:30:09.950Z,2.20
2023-03-28T11:31:26.883Z,2.20
2023-03-28T11:32:35.925Z,2.37
2023-03-28T11:33:59.178Z,2.40
2023-03-28T11:35:22.215Z,2.27
2023-03-28T11:36:58.342Z,1.90
2023-03-28T11:38:36.128Z,2.20
2023-03-28T11:39:43.697Z,1.90
2023-03-28T11:41:18.737Z,1.83
2023-03-28T11:42:29.156Z,2.03
2023-03-28T11:43:42.928Z,2.10
2023-03-28T11:45:18.800Z,1.70
2023-03-28T11:46:43.286Z,1.80
2023-03-28T11:47:57.847Z,2.03
2023-03-28T11:49:11.660Z,2.10
2023-03-28T11:50:24.851Z,2.00
2023-03-28T11:51:39.150Z,2.43
2023-03-28T11:52:48.832Z,2.43
2023-03-28T11:53:57.062Z,2.50
2023-03-28T11:55:20.554Z,2.70
2023-03-28T11:56:50.387Z,2.27
2023-03-28T11:58:16.361Z,2.23
2023-03-28T11:59:35.493Z,2.10
2023-03-28T12:00:46.208Z,2.50
2023-03-28T12:01:53.798Z,2.03
2023-03-28T12:03:02.310Z,2.70
2023-03-28T12:04:13.584Z,2.80
2023-03-28T12:05:25.440Z,2.50
2023-03-28T12:06:52.342Z,2.53
2023-03-28T12:08:19.042Z,3.13
2023-03-28T12:09:34.716Z,2.60
2023-03-28T12:10:38.035Z,3.13
2023-03-28T12:11:42.201Z,2.80
2023-03-28T12:13:12.551Z,2.60
2023-03-28T12:14:41.250Z,2.27
2023-03-28T12:15:53.834Z,2.53
2023-03-28T12:16:58.754Z,1.93
2023-03-28T12:18:10.574Z,2.10
2023-03-28T12:19:19.537Z,2.40
2023-03-28T12:20:38.523Z,2.53
2023-03-28T12:21:42.782Z,2.10
2023-03-28T12:22:50.441Z,2.10
2023-03-28T12:24:16.059Z,2.10
2023-03-28T12:25:44.995Z,2.13
2023-03-28T12:27:12.501Z,2.20
2023-03-28T12:28:33.256Z,2.07
2023-03-28T12:29:46.619Z,2.10
2023-03-28T12:30:54.902Z,2.07
2023-03-28T12:32:19.081Z,1.97
2023-03-28T12:33:43.319Z,2.07
2023-03-28T12:34:53.860Z,2.50
2023-03-28T12:36:04.437Z,2.20
2023-03-28T12:37:25.054Z,2.20
2023-03-28T12:38:32.395Z,2.47
2023-03-28T12:39:46.210Z,2.83
2023-03-28T12:40:47.827Z,2.27
2023-03-28T12:41:50.983Z,2.67
2023-03-28T12:42:55.814Z,2.20
2023-03-28T12:43:59.587Z,3.07
2023-03-28T12:45:06.881Z,2.80
2023-03-28T12:46:08.804Z,2.57
2023-03-28T12:47:24.787Z,2.23
2023-03-28T12:48:49.841Z,2.43
2023-03-28T12:49:58.951Z,2.87
2023-03-28T12:51:10.999Z,2.53
2023-03-28T12:52:18.402Z,2.53
2023-03-28T12:53:22.026Z,2.77
2023-03-28T12:54:27.950Z,2.77
2023-03-28T12:55:31.497Z,2.27
2023-03-28T12:56:33.475Z,2.07
2023-03-28T12:57:43.851Z,2.13
2023-03-28T12:58:48.104Z,2.37
2023-03-28T13:00:19.613Z,2.20
2023-03-28T13:01:41.615Z,2.10
2023-03-28T13:02:49.550Z,2.17
2023-03-28T13:04:12.415Z,2.33
2023-03-28T13:05:28.042Z,2.17
2023-03-28T13:07:01.112Z,2.10
2023-03-28T13:08:46.504Z,1.60
2023-03-28T13:09:57.830Z,1.50
2023-03-28T13:10:59.591Z,1.40
2023-03-28T13:12:24.398Z,1.73
2023-03-28T13:13:46.822Z,1.50
2023-03-28T13:15:01.072Z,1.60
2023-03-28T13:16:14.254Z,1.70
2023-03-28T13:17:27.639Z,1.37
2023-03-28T13:18:36.564Z,1.43
2023-03-28T13:19:45.404Z,1.67
2023-03-28T13:20:52.124Z,1.67
2023-03-28T13:21:58.000Z,1.50
2023-03-28T13:23:06.447Z,1.57
2023-03-28T13:24:39.860Z,1.50
2023-03-28T13:25:44.659Z,1.70
2023-03-28T13:27:03.000Z,1.73
2023-03-28T13:28:13.349Z,1.80
2023-03-28T13:29:16.161Z,1.83
2023-03-28T13:30:29.287Z,1.80
2023-03-28T13:31:32.874Z,1.80
2023-03-28T13:32:39.430Z,2.00
2023-03-28T13:33:48.134Z,1.80
2023-03-28T13:34:50.803Z,1.67
2023-03-28T13:35:58.304Z,1.43
2023-03-28T13:37:22.416Z,1.80
2023-03-28T13:38:27.152Z,1.60
2023-03-28T13:39:28.768Z,1.63
2023-03-28T13:40:54.646Z,1.70
2023-03-28T13:41:58.595Z,1.43
2023-03-28T13:43:00.550Z,1.50
2023-03-28T13:44:09.366Z,1.43
2023-03-28T13:45:37.425Z,1.60
2023-03-28T13:46:47.456Z,1.83
2023-03-28T13:47:59.754Z,1.67
2023-03-28T13:49:10.905Z,1.43
2023-03-28T13:50:30.190Z,1.80
2023-03-28T13:51:39.242Z,1.60
2023-03-28T13:52:40.830Z,1.63
2023-03-28T13:53:48.086Z,1.60
2023-03-28T13:54:56.338Z,1.33
2023-03-28T13:56:35.018Z,1.57
2023-03-28T13:57:37.217Z,1.47
2023-03-28T13:58:38.757Z,1.73
2023-03-28T13:59:51.838Z,1.40
2023-03-28T14:01:15.665Z,1.67
2023-03-28T14:02:31.141Z,1.50
2023-03-28T14:03:36.784Z,1.50
2023-03-28T14:04:38.477Z,1.57
2023-03-28T14:05:46.443Z,1.20
2023-03-28T14:06:48.973Z,1.30
2023-03-28T14:07:52.073Z,1.43
2023-03-28T14:08:57.786Z,1.50
2023-03-28T14:10:00.034Z,1.20
2023-03-28T14:11:02.991Z,1.20
2023-03-28T14:12:08.938Z,1.23
2023-03-28T14:13:23.931Z,1.30
2023-03-28T14:14:32.806Z,1.30
2023-03-28T14:15:37.050Z,1.40
2023-03-28T14:16:39.519Z,1.60
2023-03-28T14:17:41.346Z,1.47
2023-03-28T14:18:49.446Z,1.40
2023-03-28T14:19:53.836Z,1.40
2023-03-28T14:20:56.367Z,1.40
2023-03-28T14:21:57.941Z,1.50
2023-03-28T14:23:01.265Z,1.47
2023-03-28T14:24:07.879Z,1.60
2023-03-28T14:25:15.320Z,1.80
2023-03-28T14:26:22.119Z,1.57
2023-03-28T14:27:37.589Z,1.43
2023-03-28T14:28:41.158Z,1.33
2023-03-28T14:29:54.268Z,1.40
2023-03-28T14:30:56.561Z,1.50
2023-03-28T14:31:58.200Z,1.47
2023-03-28T14:33:22.901Z,1.63
2023-03-28T14:34:32.197Z,1.70
2023-03-28T14:35:36.284Z,1.50
2023-03-28T14:37:06.286Z,1.60
2023-03-28T14:38:15.960Z,1.40
2023-03-28T14:39:18.536Z,1.80
2023-03-28T14:40:23.161Z,1.57
2023-03-28T14:41:29.262Z,1.70
2023-03-28T14:42:32.131Z,1.43
2023-03-28T14:43:34.217Z,1.37
2023-03-28T14:44:40.289Z,1.53
2023-03-28T14:45:51.819Z,1.30
2023-03-28T14:46:57.988Z,1.40
2023-03-28T14:48:00.022Z,1.73
2023-03-28T14:49:05.105Z,1.47
2023-03-28T14:50:08.298Z,1.60
2023-03-28T14:51:13.353Z,1.70
2023-03-28T14:52:17.488Z,1.87
2023-03-28T14:53:27.271Z,1.40
2023-03-28T14:54:34.532Z,1.70
2023-03-28T14:55:41.833Z,1.63
2023-03-28T14:56:45.534Z,1.50
2023-03-28T14:57:50.746Z,1.60
2023-03-28T14:58:55.775Z,1.60
2023-03-28T14:59:58.162Z,1.47
2023-03-28T15:01:01.929Z,1.53
2023-03-28T15:02:05.765Z,1.30
2023-03-28T15:03:12.848Z,1.30